createdAt,value
2019-02-26T00:04:36.912Z,7.67
2019-02-26T00:09:42.485Z,7.60
2019-02-26T00:14:49.995Z,7.48
2019-02-26T00:19:54.913Z,7.41
2019-02-26T00:25:03.833Z,7.39
2019-02-26T00:30:11.182Z,7.33
2019-02-26T00:35:18.226Z,7.34
2019-02-26T00:40:23.224Z,7.26
2019-02-26T00:45:29.460Z,7.27
2019-02-26T00:50:37.313Z,7.31
2019-02-26T00:55:42.199Z,7.26
2019-02-26T01:00:47.213Z,7.20
2019-02-26T01:05:52.631Z,7.15
2019-02-26T01:10:59.244Z,7.15
2019-02-26T01:16:04.376Z,7.13
2019-02-26T01:21:09.387Z,7.01
2019-02-26T01:26:14.745Z,6.95
2019-02-26T01:31:20.706Z,6.91
2019-02-26T01:36:26.821Z,6.87
2019-02-26T01:41:32.241Z,6.98
2019-02-26T01:46:38.967Z,6.87
2019-02-26T01:51:46.937Z,6.82
2019-02-26T01:56:53.429Z,6.66
2019-02-26T02:01:58.747Z,6.64
2019-02-26T02:07:05.939Z,6.45
2019-02-26T02:12:11.042Z,6.34
2019-02-26T02:17:17.682Z,6.43
2019-02-26T02:22:22.699Z,6.44
2019-02-26T02:27:30.350Z,6.44
2019-02-26T02:32:34.601Z,6.30
2019-02-26T02:37:39.581Z,6.32
2019-02-26T02:42:48.493Z,6.37
2019-02-26T02:47:54.850Z,6.31
2019-02-26T02:52:59.629Z,6.27
2019-02-26T02:58:04.758Z,6.37
2019-02-26T03:03:09.773Z,6.00
2019-02-26T03:08:16.337Z,5.85
2019-02-26T03:13:24.870Z,5.99
2019-02-26T03:18:28.239Z,6.01
2019-02-26T03:23:33.944Z,5.89
2019-02-26T03:28:44.435Z,5.57
2019-02-26T03:33:48.897Z,5.48
2019-02-26T03:38:56.595Z,5.50
2019-02-26T03:44:03.262Z,5.55
2019-02-26T03:49:08.075Z,5.43
2019-02-26T03:54:13.104Z,5.54
2019-02-26T03:59:18.154Z,5.61
2019-02-26T04:04:25.627Z,5.67
2019-02-26T04:09:29.859Z,5.63
2019-02-26T04:14:34.895Z,5.49
2019-02-26T04:19:43.647Z,5.42
2019-02-26T04:24:46.579Z,5.43
2019-02-26T04:30:34.035Z,5.37
2019-02-26T04:35:55.620Z,5.35
2019-02-26T04:41:25.717Z,5.42
2019-02-26T04:46:53.941Z,5.42
2019-02-26T04:51:59.231Z,5.57
2019-02-26T04:57:04.332Z,5.50
2019-02-26T05:02:09.437Z,5.54
2019-02-26T05:07:18.733Z,5.52
2019-02-26T05:12:25.041Z,5.27
2019-02-26T05:17:30.246Z,5.19
2019-02-26T05:22:34.637Z,5.15
2019-02-26T05:27:42.389Z,4.92
2019-02-26T05:32:46.352Z,4.80
2019-02-26T05:37:51.365Z,4.67
2019-02-26T05:42:58.833Z,4.72
2019-02-26T05:48:03.536Z,4.74
2019-02-26T05:53:11.439Z,4.86
2019-02-26T05:58:16.422Z,4.96
2019-02-26T06:03:21.877Z,4.93
2019-02-26T06:08:30.164Z,5.01
2019-02-26T06:13:35.534Z,4.95
2019-02-26T06:18:41.987Z,4.91
2019-02-26T06:23:52.219Z,4.75
2019-02-26T06:28:57.229Z,4.47
2019-02-26T06:34:05.638Z,4.47
2019-02-26T06:39:09.227Z,4.52
2019-02-26T06:44:14.265Z,4.71
2019-02-26T06:49:20.686Z,4.52
2019-02-26T06:54:27.124Z,4.52
2019-02-26T06:59:34.948Z,4.65
2019-02-26T07:04:39.629Z,4.61
2019-02-26T07:09:44.689Z,4.60
2019-02-26T07:14:51.357Z,4.64
2019-02-26T07:19:58.459Z,4.36
2019-02-26T07:25:06.444Z,4.29
2019-02-26T07:30:11.878Z,4.32
2019-02-26T07:35:17.339Z,4.52
2019-02-26T07:40:22.697Z,4.50
2019-02-26T07:45:29.641Z,4.55
2019-02-26T07:50:37.644Z,4.72
2019-02-26T07:55:42.406Z,4.70
2019-02-26T08:00:49.864Z,4.83
2019-02-26T08:05:54.183Z,4.77
2019-02-26T08:10:59.227Z,5.05
2019-02-26T08:16:05.115Z,5.20
2019-02-26T08:21:10.275Z,5.39
2019-02-26T08:26:17.290Z,5.70
2019-02-26T08:31:23.229Z,6.19
2019-02-26T08:36:30.116Z,6.71
2019-02-26T08:41:36.279Z,6.82
2019-02-26T08:46:42.723Z,6.92
2019-02-26T08:51:49.235Z,7.05
2019-02-26T08:56:54.495Z,7.20
2019-02-26T09:01:59.601Z,7.42
2019-02-26T09:07:04.644Z,7.82
2019-02-26T09:12:10.101Z,8.16
2019-02-26T09:17:18.712Z,8.41
2019-02-26T09:22:23.608Z,8.69
2019-02-26T09:27:29.470Z,8.94
2019-02-26T09:32:37.541Z,11.46
2019-02-26T09:37:42.795Z,16.39
2019-02-26T09:42:51.755Z,18.73
2019-02-26T09:47:57.862Z,21.04
2019-02-26T09:53:02.593Z,22.89
2019-02-26T09:58:07.770Z,23.43
2019-02-26T10:03:15.029Z,24.02
2019-02-26T10:08:20.367Z,24.20
2019-02-26T10:13:27.758Z,24.87
2019-02-26T10:18:33.075Z,25.15
2019-02-26T10:23:38.415Z,24.39
2019-02-26T10:28:46.795Z,22.90
2019-02-26T10:33:50.854Z,22.75
2019-02-26T10:38:57.857Z,22.16
2019-02-26T10:44:02.698Z,21.62
2019-02-26T10:49:07.846Z,21.22
2019-02-26T10:54:17.664Z,20.79
2019-02-26T10:59:25.024Z,19.92
2019-02-26T11:04:35.568Z,18.78
2019-02-26T11:09:41.056Z,18.11
2019-02-26T11:14:46.166Z,18.60
2019-02-26T11:19:50.316Z,19.31
2019-02-26T11:24:56.132Z,19.55
2019-02-26T11:30:04.886Z,18.43
2019-02-26T11:35:11.728Z,17.78
2019-02-26T11:40:19.756Z,18.71
2019-02-26T11:45:24.206Z,18.30
2019-02-26T11:50:29.352Z,18.75
2019-02-26T11:55:37.396Z,19.07
2019-02-26T12:00:50.799Z,19.84
2019-02-26T12:06:00.631Z,20.12
2019-02-26T12:16:09.070Z,21.50
2019-02-26T12:21:13.495Z,21.46
2019-02-26T12:26:19.310Z,21.35
2019-02-26T12:31:25.381Z,22.41
2019-02-26T12:36:32.671Z,22.41
2019-02-26T12:41:41.190Z,22.50
2019-02-26T12:46:45.828Z,20.86
2019-02-26T12:51:53.982Z,20.02
2019-02-26T12:56:57.671Z,18.44
2019-02-26T13:02:05.564Z,18.62
2019-02-26T13:07:09.452Z,18.93
2019-02-26T13:12:17.159Z,19.36
2019-02-26T13:17:21.013Z,19.60
2019-02-26T13:22:24.689Z,20.33
2019-02-26T13:27:28.679Z,20.76
2019-02-26T13:32:49.702Z,21.29
2019-02-26T13:37:41.850Z,20.89
2019-02-26T13:42:59.302Z,19.56
2019-02-26T13:48:00.828Z,19.48
2019-02-26T13:52:59.665Z,19.71
2019-02-26T13:58:11.353Z,19.14
2019-02-26T14:03:09.920Z,19.05
2019-02-26T14:08:13.922Z,18.87
2019-02-26T14:13:17.820Z,18.07
2019-02-26T14:18:22.752Z,17.39
2019-02-26T14:23:27.616Z,17.14
2019-02-26T14:28:31.526Z,16.74
2019-02-26T14:33:36.554Z,16.24
2019-02-26T14:38:40.542Z,15.78
2019-02-26T14:43:44.907Z,15.37
2019-02-26T14:48:49.146Z,15.09
2019-02-26T14:53:53.034Z,14.96
2019-02-26T14:58:56.962Z,14.90
2019-02-26T15:04:00.912Z,14.81
2019-02-26T15:09:05.020Z,14.79
2019-02-26T15:14:13.539Z,14.75
2019-02-26T15:19:23.944Z,14.67
2019-02-26T15:24:28.175Z,14.64
2019-02-26T15:29:32.271Z,14.52
2019-02-26T15:34:36.535Z,14.49
2019-02-26T15:39:40.749Z,14.41
2019-02-26T15:44:45.043Z,14.32
2019-02-26T15:49:48.966Z,14.32
2019-02-26T15:54:55.667Z,14.33
2019-02-26T15:59:58.957Z,14.23
2019-02-26T16:05:03.392Z,14.20
2019-02-26T16:10:08.057Z,14.14
2019-02-26T16:15:12.349Z,14.03
2019-02-26T16:20:17.116Z,13.88
2019-02-26T16:25:21.965Z,13.74
2019-02-26T16:30:26.443Z,13.66
2019-02-26T16:35:30.840Z,13.62
2019-02-26T16:40:35.439Z,13.58
2019-02-26T16:45:39.673Z,13.47
2019-02-26T16:50:45.572Z,13.36
2019-02-26T16:55:49.640Z,13.30
2019-02-26T17:00:54.699Z,13.27
2019-02-26T17:05:59.021Z,13.26
2019-02-26T17:11:03.035Z,13.25
2019-02-26T17:16:07.725Z,13.22
2019-02-26T17:21:12.005Z,13.20
2019-02-26T17:26:16.301Z,13.13
2019-02-26T17:31:20.363Z,13.05
2019-02-26T17:36:24.533Z,12.93
2019-02-26T17:41:29.101Z,12.84
2019-02-26T17:46:33.826Z,12.72
2019-02-26T17:51:39.273Z,12.62
2019-02-26T17:56:44.961Z,12.51
2019-02-26T18:01:50.042Z,12.43
2019-02-26T18:06:55.193Z,12.29
2019-02-26T18:12:02.289Z,12.17
2019-02-26T18:17:07.527Z,12.12
2019-02-26T18:22:12.607Z,12.07
2019-02-26T18:27:17.869Z,12.00
2019-02-26T18:32:23.138Z,11.99
2019-02-26T18:37:29.620Z,11.98
2019-02-26T18:42:34.754Z,11.95
2019-02-26T18:47:42.376Z,11.92
2019-02-26T18:52:47.681Z,11.81
2019-02-26T18:57:54.462Z,11.72
2019-02-26T19:02:59.688Z,11.64
2019-02-26T19:08:05.826Z,11.57
2019-02-26T19:13:11.804Z,11.51
2019-02-26T19:18:17.538Z,11.41
2019-02-26T19:23:22.785Z,11.35
2019-02-26T19:28:28.621Z,11.33
2019-02-26T19:33:33.837Z,11.29
2019-02-26T19:38:39.776Z,11.24
2019-02-26T19:44:00.032Z,11.23
2019-02-26T19:49:05.722Z,11.15
2019-02-26T19:54:11.616Z,11.06
2019-02-26T19:59:16.750Z,11.00
2019-02-26T20:04:22.488Z,10.91
2019-02-26T20:09:33.562Z,10.85
2019-02-26T20:14:38.882Z,10.79
2019-02-26T20:19:44.344Z,10.73
2019-02-26T20:24:49.668Z,10.68
2019-02-26T20:29:55.465Z,10.63
2019-02-26T20:35:00.734Z,10.53
2019-02-26T20:40:16.001Z,10.52
2019-02-26T20:45:19.002Z,10.42
2019-02-26T20:50:24.440Z,10.37
2019-02-26T20:55:29.832Z,10.25
2019-02-26T21:00:35.102Z,10.22
2019-02-26T21:05:41.790Z,10.13
2019-02-26T21:10:52.156Z,9.99
2019-02-26T21:15:58.081Z,9.88
2019-02-26T21:21:03.328Z,9.87
2019-02-26T21:26:09.456Z,9.83
2019-02-26T21:31:16.684Z,9.78
2019-02-26T21:36:27.906Z,9.75
2019-02-26T21:41:35.849Z,9.65
2019-02-26T21:46:47.352Z,9.61
2019-02-26T21:51:55.451Z,9.59
2019-02-26T21:57:02.366Z,9.52
2019-02-26T22:02:11.104Z,9.51
2019-02-26T22:07:16.806Z,9.37
2019-02-26T22:12:26.475Z,9.31
2019-02-26T22:17:33.861Z,9.11
2019-02-26T22:22:40.123Z,9.11
2019-02-26T22:27:45.269Z,9.16
2019-02-26T22:32:55.282Z,9.15
2019-02-26T22:38:00.368Z,9.11
2019-02-26T22:43:05.399Z,9.09
2019-02-26T22:48:15.140Z,9.01
2019-02-26T22:53:21.470Z,8.95
2019-02-26T22:58:27.758Z,8.85
2019-02-26T23:03:32.800Z,8.74
2019-02-26T23:08:37.846Z,8.78
2019-02-26T23:13:44.152Z,8.68
2019-02-26T23:18:49.629Z,8.65
2019-02-26T23:23:56.673Z,8.65
2019-02-26T23:29:02.094Z,8.50
2019-02-26T23:34:10.272Z,8.38
2019-02-26T23:39:16.907Z,8.33
2019-02-26T23:44:23.661Z,8.16
2019-02-26T23:49:28.658Z,7.94
2019-02-26T23:54:33.760Z,7.96
2019-02-26T23:59:47.827Z,7.89
